Time;durP1;ratioP1;P1;durP2;ratioP2;P2;SDS_P1;SDS_P2;PMS_P1;PMS_P2;Temp;Humidity;BMP_temperature;BMP_pressure;BME280_temperature;BME280_humidity;BME280_pressure;Samples;Min_cycle;Max_cycle;Signal;HPM_P1;HPM_P2
2022/05/14 00:00:24;;;;;;;20.02;4.45;;;;;;;8.61;100.00;101574.16;4875422;29;20033;-78
2022/05/14 00:02:50;;;;;;;14.73;4.40;;;;;;;8.56;100.00;101569.25;4843508;29;20045;-79
2022/05/14 00:05:21;;;;;;;19.70;4.50;;;;;;;8.62;100.00;101585.44;4860717;29;20069;-78
2022/05/14 00:07:48;;;;;;;15.27;4.28;;;;;;;8.61;100.00;101581.13;4858032;29;20050;-79
2022/05/14 00:10:15;;;;;;;15.20;4.10;;;;;;;8.70;100.00;101583.06;4846043;29;20045;-79
2022/05/14 00:15:25;;;;;;;21.90;4.55;;;;;;;8.84;100.00;101588.13;4864329;29;20523;-79
2022/05/14 00:17:51;;;;;;;18.10;4.45;;;;;;;8.97;100.00;101564.50;4865807;29;20038;-79
2022/05/14 00:20:18;;;;;;;14.00;4.22;;;;;;;9.03;100.00;101571.88;4840438;29;20525;-78
2022/05/14 00:22:43;;;;;;;12.40;4.40;;;;;;;9.13;100.00;101567.59;4858233;29;20049;-78
2022/05/14 00:25:10;;;;;;;12.57;4.35;;;;;;;9.13;100.00;101561.53;4837712;29;20037;-79
2022/05/14 00:27:41;;;;;;;16.38;4.72;;;;;;;9.13;100.00;101566.78;4877876;29;20069;-78
2022/05/14 00:30:07;;;;;;;12.80;4.60;;;;;;;9.09;100.00;101549.63;4860894;29;20045;-80
2022/05/14 00:32:33;;;;;;;13.40;4.28;;;;;;;9.20;100.00;101554.06;4837442;29;20546;-77
2022/05/14 00:34:58;;;;;;;15.45;4.65;;;;;;;9.15;100.00;101562.25;4848411;29;20065;-78
2022/05/14 00:37:24;;;;;;;15.30;4.55;;;;;;;9.29;100.00;101566.44;4838025;29;20041;-78
2022/05/14 00:39:50;;;;;;;23.30;4.70;;;;;;;9.25;100.00;101565.00;4839896;29;20101;-79
2022/05/14 00:42:15;;;;;;;17.38;4.70;;;;;;;9.46;100.00;101560.75;4846377;29;20048;-79
2022/05/14 00:44:41;;;;;;;12.43;4.78;;;;;;;9.66;100.00;101561.81;4859945;29;20096;-80
2022/05/14 00:47:12;;;;;;;14.75;4.78;;;;;;;9.79;100.00;101566.06;4867392;29;20472;-78
2022/05/14 00:49:38;;;;;;;16.15;4.70;;;;;;;9.63;100.00;101562.03;4837952;29;20776;-78
2022/05/14 00:52:04;;;;;;;20.75;5.00;;;;;;;9.52;100.00;101562.03;4857821;29;20043;-78
2022/05/14 00:54:38;;;;;;;14.52;4.70;;;;;;;9.56;100.00;101566.09;4859092;29;20080;-80
2022/05/14 00:57:08;;;;;;;15.07;4.50;;;;;;;9.55;100.00;101561.81;4881351;29;20036;-79
2022/05/14 00:59:35;;;;;;;15.80;4.88;;;;;;;9.54;100.00;101563.56;4878259;29;20033;-78
2022/05/14 01:02:01;;;;;;;18.98;4.50;;;;;;;9.47;100.00;101564.19;4844142;29;20053;-78
2022/05/14 01:04:29;;;;;;;17.70;5.22;;;;;;;9.41;100.00;101562.03;4845625;29;20428;-79
2022/05/14 01:07:01;;;;;;;12.88;4.70;;;;;;;9.43;100.00;101562.75;4861418;29;20041;-79
2022/05/14 01:09:27;;;;;;;11.40;5.00;;;;;;;9.41;100.00;101552.41;4875375;29;20042;-78
2022/05/14 01:11:55;;;;;;;17.92;5.43;;;;;;;9.53;100.00;101555.84;4856595;29;20406;-79
2022/05/14 01:14:21;;;;;;;13.10;4.55;;;;;;;9.47;100.00;101561.56;4846750;29;20221;-79
2022/05/14 01:16:48;;;;;;;10.07;4.70;;;;;;;9.34;100.00;101552.06;4873295;29;20037;-78
2022/05/14 01:19:14;;;;;;;16.90;5.07;;;;;;;9.32;100.00;101553.09;4843462;29;20519;-79
2022/05/14 01:21:59;;;;;;;13.68;4.70;;;;;;;9.30;100.00;101553.22;4858744;29;20107;-77
2022/05/14 01:27:28;;;;;;;17.73;5.05;;;;;;;9.54;100.00;101545.25;4871900;29;20093;-80
2022/05/14 01:29:54;;;;;;;19.92;5.35;;;;;;;9.40;100.00;101545.50;4846161;29;20037;-78
2022/05/14 01:32:20;;;;;;;17.17;5.55;;;;;;;9.25;100.00;101533.56;4857456;29;20048;-78
2022/05/14 01:34:47;;;;;;;18.52;5.65;;;;;;;9.26;100.00;101546.56;4861641;29;20534;-78
2022/05/14 01:37:15;;;;;;;24.52;5.63;;;;;;;9.14;100.00;101547.50;4840939;29;20156;-80
2022/05/14 01:39:42;;;;;;;19.55;5.57;;;;;;;9.16;100.00;101548.22;4838661;29;20038;-79
2022/05/14 01:42:08;;;;;;;17.17;5.28;;;;;;;9.18;100.00;101550.72;4856466;29;20140;-81
2022/05/14 01:44:34;;;;;;;21.13;6.50;;;;;;;9.10;100.00;101557.38;4843636;29;20037;-78
2022/05/14 01:46:59;;;;;;;15.38;5.20;;;;;;;9.10;100.00;101544.28;4874687;29;20042;-81
2022/05/14 01:49:25;;;;;;;14.27;5.10;;;;;;;9.14;100.00;101553.56;4822246;29;20081;-80
2022/05/14 01:51:54;;;;;;;14.50;5.28;;;;;;;9.08;100.00;101529.63;4852861;29;20502;-78
2022/05/14 01:54:19;;;;;;;16.33;5.40;;;;;;;9.25;100.00;101541.44;4827596;29;20042;-78
2022/05/14 01:56:45;;;;;;;19.02;5.45;;;;;;;9.25;100.00;101544.91;4866250;29;20071;-79
2022/05/14 01:59:11;;;;;;;19.10;5.47;;;;;;;9.16;100.00;101543.00;4865466;29;20448;-78
2022/05/14 02:01:37;;;;;;;15.25;5.15;;;;;;;9.17;100.00;101544.66;4841415;29;20500;-78
2022/05/14 02:04:12;;;;;;;14.93;4.75;;;;;;;9.15;100.00;101549.16;4862310;29;20057;-78
2022/05/14 02:06:40;;;;;;;15.52;5.25;;;;;;;9.14;100.00;101550.97;4876060;29;20518;-78
2022/05/14 02:09:08;;;;;;;15.50;5.10;;;;;;;9.14;100.00;101548.34;4858796;29;20033;-78
2022/05/14 02:11:36;;;;;;;17.90;5.32;;;;;;;9.14;100.00;101529.19;4862067;29;20037;-78
2022/05/14 02:14:11;;;;;;;23.25;5.32;;;;;;;9.14;100.00;101540.50;4865034;29;20055;-79
2022/05/14 02:16:37;;;;;;;15.25;4.85;;;;;;;9.03;100.00;101526.56;4864808;29;20052;-78
2022/05/14 02:19:04;;;;;;;11.00;5.38;;;;;;;9.01;100.00;101533.69;4855330;29;20045;-78
2022/05/14 02:21:32;;;;;;;18.98;5.65;;;;;;;9.03;100.00;101537.03;4876995;29;20093;-80
2022/05/14 02:23:59;;;;;;;15.60;5.60;;;;;;;8.97;100.00;101540.94;4872307;29;20048;-79
2022/05/14 02:26:25;;;;;;;22.23;5.47;;;;;;;8.94;100.00;101539.38;4860581;29;20073;-79
2022/05/14 02:28:51;;;;;;;17.80;6.20;;;;;;;8.98;100.00;101547.00;4885348;29;20042;-77
2022/05/14 02:31:17;;;;;;;21.17;5.78;;;;;;;8.82;100.00;101531.66;4844108;29;20041;-76
2022/05/14 02:33:42;;;;;;;18.30;5.85;;;;;;;8.78;100.00;101538.88;4845297;29;20093;-77
2022/05/14 02:36:09;;;;;;;16.17;5.63;;;;;;;8.80;100.00;101551.81;4861076;29;20048;-78
2022/05/14 02:38:36;;;;;;;18.08;5.78;;;;;;;8.86;100.00;101546.16;4846579;29;20042;-78
2022/05/14 02:41:03;;;;;;;13.80;5.25;;;;;;;8.80;100.00;101546.59;4844041;29;20041;-77
2022/05/14 02:43:29;;;;;;;23.23;6.10;;;;;;;8.76;100.00;101554.69;4860054;29;20038;-77
2022/05/14 02:45:55;;;;;;;17.55;5.95;;;;;;;8.83;100.00;101546.38;4843702;29;20048;-78
2022/05/14 02:48:20;;;;;;;29.63;6.75;;;;;;;8.77;100.00;101569.44;4856483;29;20041;-78
2022/05/14 02:50:46;;;;;;;20.02;6.38;;;;;;;8.74;100.00;101572.28;4853764;29;20033;-77
2022/05/14 02:53:12;;;;;;;27.73;6.88;;;;;;;8.82;100.00;101557.81;4867539;29;20041;-77
2022/05/14 02:55:38;;;;;;;19.40;6.18;;;;;;;8.83;100.00;101549.81;4864349;29;20033;-77
2022/05/14 02:58:03;;;;;;;14.82;5.75;;;;;;;8.93;100.00;101552.59;4856122;29;20060;-78
2022/05/14 03:00:29;;;;;;;20.85;6.32;;;;;;;8.99;100.00;101561.78;4840468;29;20071;-79
2022/05/14 03:02:55;;;;;;;24.85;6.15;;;;;;;8.98;100.00;101557.47;4846822;29;20468;-78
2022/05/14 03:05:23;;;;;;;17.20;5.88;;;;;;;8.96;100.00;101565.44;4828564;29;20042;-78
2022/05/14 03:07:48;;;;;;;21.55;7.03;;;;;;;8.98;100.00;101553.06;4858749;29;20034;-80
2022/05/14 03:10:16;;;;;;;16.85;6.45;;;;;;;9.00;100.00;101563.41;4844277;29;20105;-78
2022/05/14 03:12:42;;;;;;;21.23;5.82;;;;;;;8.96;100.00;101570.66;4859771;29;20049;-78
2022/05/14 03:15:09;;;;;;;24.40;6.55;;;;;;;8.96;100.00;101555.78;4855641;29;20137;-77
2022/05/14 03:17:35;;;;;;;19.83;6.35;;;;;;;9.15;100.00;101570.09;4857396;29;20037;-78
2022/05/14 03:20:06;;;;;;;20.88;6.32;;;;;;;9.08;100.00;101563.66;4869705;29;20124;-78
2022/05/14 03:22:37;;;;;;;15.57;5.95;;;;;;;8.97;100.00;101567.13;4871046;29;20128;-78
2022/05/14 03:25:05;;;;;;;20.13;6.38;;;;;;;8.87;100.00;101572.22;4832211;29;20060;-78
2022/05/14 03:27:31;;;;;;;19.25;6.18;;;;;;;8.88;100.00;101568.63;4862252;29;20516;-78
2022/05/14 03:29:57;;;;;;;15.77;6.00;;;;;;;8.80;100.00;101571.00;4862585;29;20045;-78
2022/05/14 03:32:24;;;;;;;14.10;6.13;;;;;;;8.82;100.00;101582.19;4827628;29;20081;-78
2022/05/14 03:34:50;;;;;;;17.17;6.55;;;;;;;8.70;100.00;101570.00;4859097;29;20045;-80
2022/05/14 03:37:16;;;;;;;17.10;6.47;;;;;;;8.76;100.00;101580.03;4859618;29;20144;-79
2022/05/14 03:39:42;;;;;;;17.30;6.63;;;;;;;8.66;100.00;101574.63;4860637;29;20128;-79
2022/05/14 03:42:08;;;;;;;20.80;6.45;;;;;;;8.73;100.00;101590.72;4872179;29;20044;-79
2022/05/14 03:44:33;;;;;;;18.58;6.10;;;;;;;8.64;100.00;101581.75;4842544;29;20550;-80
2022/05/14 03:46:59;;;;;;;16.50;6.80;;;;;;;8.58;100.00;101587.44;4867798;29;20041;-79
2022/05/14 03:49:25;;;;;;;15.85;6.72;;;;;;;8.48;100.00;101589.06;4874914;29;20101;-78
2022/05/14 03:51:52;;;;;;;17.67;6.68;;;;;;;8.53;100.00;101598.25;4842513;29;20390;-78
2022/05/14 03:54:18;;;;;;;20.65;6.85;;;;;;;8.48;100.00;101596.91;4859308;29;20211;-79
2022/05/14 03:56:44;;;;;;;18.88;7.30;;;;;;;8.46;100.00;101609.28;4839198;29;20041;-79
2022/05/14 03:59:10;;;;;;;19.92;6.65;;;;;;;8.46;100.00;101597.03;4842226;29;20412;-78
2022/05/14 04:01:36;;;;;;;21.17;7.50;;;;;;;8.46;100.00;101604.03;4860457;29;20033;-78
2022/05/14 04:04:02;;;;;;;17.58;6.90;;;;;;;8.42;100.00;101603.44;4863482;29;20033;-79
2022/05/14 04:06:28;;;;;;;22.70;7.50;;;;;;;8.29;100.00;101586.94;4875060;29;20041;-79
2022/05/14 04:08:54;;;;;;;26.63;7.05;;;;;;;8.41;100.00;101609.56;4861044;29;20037;-81
2022/05/14 04:11:20;;;;;;;25.02;7.80;;;;;;;8.50;100.00;101618.56;4832776;29;20408;-80
2022/05/14 04:13:46;;;;;;;22.67;8.02;;;;;;;8.59;100.00;101612.66;4853197;29;20045;-80
2022/05/14 04:16:12;;;;;;;22.10;7.82;;;;;;;8.69;100.00;101625.88;4872245;29;20051;-80
2022/05/14 04:18:38;;;;;;;25.48;8.20;;;;;;;8.78;100.00;101619.97;4839450;29;20048;-78
2022/05/14 04:21:04;;;;;;;19.75;7.05;;;;;;;8.84;100.00;101614.28;4853931;29;20093;-79
2022/05/14 04:23:31;;;;;;;34.15;8.13;;;;;;;8.90;100.00;101621.66;4874831;29;20454;-81
2022/05/14 04:25:58;;;;;;;23.25;7.80;;;;;;;8.94;100.00;101617.06;4837754;29;20120;-81
2022/05/14 04:28:25;;;;;;;22.73;7.57;;;;;;;8.94;100.00;101625.72;4866840;29;20136;-79
2022/05/14 04:30:52;;;;;;;19.23;7.10;;;;;;;8.98;100.00;101623.72;4845826;29;20046;-79
2022/05/14 04:33:19;;;;;;;22.48;7.75;;;;;;;9.15;100.00;101632.91;4826804;29;20068;-79
2022/05/14 04:35:46;;;;;;;20.80;7.10;;;;;;;9.29;100.00;101626.66;4839679;29;20041;-80
2022/05/14 04:38:12;;;;;;;28.33;7.60;;;;;;;9.50;100.00;101621.56;4831372;29;20052;-79
2022/05/14 04:40:38;;;;;;;18.50;6.53;;;;;;;9.83;100.00;101627.75;4871296;29;20033;-79
2022/05/14 04:43:06;;;;;;;23.17;7.15;;;;;;;10.03;100.00;101629.63;4839287;29;20416;-79
2022/05/14 04:45:32;;;;;;;19.25;6.55;;;;;;;10.18;100.00;101634.63;4852143;29;20477;-78
2022/05/14 04:47:58;;;;;;;21.80;6.35;;;;;;;10.22;100.00;101631.63;4844589;29;20068;-77
2022/05/14 04:50:24;;;;;;;23.98;7.03;;;;;;;10.37;100.00;101639.28;4870528;29;20041;-80
2022/05/14 04:52:50;;;;;;;25.88;6.00;;;;;;;10.33;100.00;101642.13;4845635;29;20041;-78
2022/05/14 04:55:16;;;;;;;24.00;6.57;;;;;;;10.40;100.00;101652.97;4876034;29;20041;-79
2022/05/14 04:57:43;;;;;;;23.33;6.18;;;;;;;10.39;100.00;101646.03;4855367;29;20056;-78
2022/05/14 05:00:13;;;;;;;29.80;7.15;;;;;;;10.56;100.00;101651.72;4873261;29;20049;-79
2022/05/14 05:05:25;;;;;;;21.73;6.43;;;;;;;10.65;100.00;101658.88;4865310;29;20053;-78
2022/05/14 05:07:50;;;;;;;17.30;6.45;;;;;;;10.71;100.00;101667.06;4850008;29;20047;-79
2022/05/14 05:10:16;;;;;;;24.27;6.20;;;;;;;10.73;100.00;101660.84;4830363;29;20110;-78
2022/05/14 05:12:42;;;;;;;17.42;6.10;;;;;;;10.83;100.00;101669.63;4859043;29;20045;-78
2022/05/14 05:15:09;;;;;;;20.88;6.15;;;;;;;10.82;100.00;101668.00;4858736;29;20106;-79
2022/05/14 05:17:34;;;;;;;23.67;6.72;;;;;;;10.89;100.00;101672.59;4858676;29;20068;-78
2022/05/14 05:20:00;;;;;;;23.85;5.95;;;;;;;10.96;100.00;101675.53;4861738;29;20080;-79
2022/05/14 05:22:25;;;;;;;26.85;6.60;;;;;;;10.88;100.00;101673.56;4859992;29;20044;-81
2022/05/14 05:24:52;;;;;;;19.73;6.05;;;;;;;11.05;100.00;101689.72;4840416;29;20120;-77
2022/05/14 05:27:18;;;;;;;21.42;6.10;;;;;;;11.10;100.00;101687.56;4841563;29;20497;-79
2022/05/14 05:29:44;;;;;;;15.02;6.60;;;;;;;11.08;100.00;101692.09;4844664;29;20104;-78
2022/05/14 05:32:09;;;;;;;21.65;6.05;;;;;;;11.11;100.00;101689.19;4854655;29;20145;-78
2022/05/14 05:34:35;;;;;;;20.80;6.57;;;;;;;11.12;100.00;101692.69;4842512;29;20048;-79
2022/05/14 05:37:00;;;;;;;18.00;6.03;;;;;;;11.15;100.00;101689.78;4861086;29;20044;-76
2022/05/14 05:39:26;;;;;;;19.48;5.95;;;;;;;11.22;100.00;101686.50;4849904;29;20042;-79
2022/05/14 05:41:54;;;;;;;18.73;6.18;;;;;;;11.21;100.00;101684.88;4858179;29;20432;-78
2022/05/14 05:44:19;;;;;;;23.40;7.13;;;;;;;11.21;100.00;101692.75;4842878;29;20084;-80
2022/05/14 05:46:45;;;;;;;24.60;6.20;;;;;;;11.17;100.00;101695.72;4861554;29;20029;-81
2022/05/14 05:49:12;;;;;;;31.02;7.38;;;;;;;11.21;100.00;101700.63;4855609;29;20045;-79
2022/05/14 05:51:38;;;;;;;25.85;6.38;;;;;;;11.21;100.00;101692.75;4832735;29;20052;-78
2022/05/14 05:56:51;;;;;;;21.90;6.22;;;;;;;11.26;100.00;101701.09;4863202;29;20065;-77
2022/05/14 05:59:19;;;;;;;19.42;6.25;;;;;;;11.30;100.00;101701.63;4862921;29;20044;-77
2022/05/14 06:01:44;;;;;;;27.67;6.00;;;;;;;11.23;100.00;101690.81;4852438;29;20051;-78
2022/05/14 06:04:10;;;;;;;24.10;6.22;;;;;;;11.34;100.00;101687.31;4857151;29;20037;-79
2022/05/14 06:06:40;;;;;;;29.23;6.53;;;;;;;11.37;100.00;101692.28;4848119;29;20033;-79
2022/05/14 06:09:08;;;;;;;17.33;6.43;;;;;;;11.55;100.00;101694.34;4858619;29;20101;-79
2022/05/14 06:11:34;;;;;;;35.25;7.00;;;;;;;11.59;100.00;101701.84;4857077;29;20040;-79
2022/05/14 06:14:00;;;;;;;23.75;5.70;;;;;;;11.75;100.00;101703.16;4844151;29;20037;-79
2022/05/14 06:16:26;;;;;;;26.77;6.53;;;;;;;11.87;100.00;101688.97;4857472;29;20043;-79
2022/05/14 06:18:51;;;;;;;21.58;5.88;;;;;;;11.96;100.00;101711.03;4856210;29;20033;-78
2022/05/14 06:21:18;;;;;;;27.77;5.95;;;;;;;12.08;100.00;101717.88;4855069;29;20132;-78
2022/05/14 06:23:43;;;;;;;25.42;6.20;;;;;;;11.98;100.00;101704.69;4844083;29;20038;-80
2022/05/14 06:26:09;;;;;;;23.45;5.97;;;;;;;12.13;100.00;101709.56;4858500;29;20041;-78
2022/05/14 06:28:35;;;;;;;24.77;6.10;;;;;;;12.30;100.00;101711.59;4855933;29;20044;-78
2022/05/14 06:31:00;;;;;;;28.92;7.50;;;;;;;12.36;100.00;101711.03;4859362;29;20070;-78
2022/05/14 06:33:26;;;;;;;33.72;6.55;;;;;;;12.44;100.00;101716.44;4885145;29;20050;-79
2022/05/14 06:35:52;;;;;;;25.65;5.90;;;;;;;12.68;100.00;101719.69;4871801;29;20032;-79
2022/05/14 06:38:19;;;;;;;27.67;6.22;;;;;;;12.78;100.00;101717.91;4857105;29;20152;-77
2022/05/14 06:40:46;;;;;;;26.92;5.80;;;;;;;12.91;100.00;101730.81;4856334;29;20057;-80
2022/05/14 06:43:15;;;;;;;21.77;5.60;;;;;;;12.84;100.00;101725.25;4838861;29;20089;-79
2022/05/14 06:45:42;;;;;;;16.88;5.60;;;;;;;13.03;100.00;101727.06;4860386;29;20080;-79
2022/05/14 06:48:07;;;;;;;25.00;5.80;;;;;;;13.25;100.00;101731.22;4850266;29;20883;-78
2022/05/14 06:50:37;;;;;;;25.10;5.85;;;;;;;13.33;100.00;101744.53;4857989;29;20037;-79
2022/05/14 06:53:04;;;;;;;27.88;5.72;;;;;;;13.51;100.00;101741.22;4866774;29;20712;-79
2022/05/14 06:55:36;;;;;;;27.48;6.43;;;;;;;13.71;100.00;101742.84;4864145;29;20030;-77
2022/05/14 06:58:03;;;;;;;24.27;5.63;;;;;;;13.79;100.00;101744.75;4862148;29;20534;-77
2022/05/14 07:00:29;;;;;;;22.58;4.88;;;;;;;13.98;100.00;101735.94;4861295;29;20413;-79
2022/05/14 07:06:37;;;;;;;23.98;5.65;;;;;;;14.09;100.00;101748.09;4858238;29;20048;-77
2022/05/14 07:08:25;;;;;;;27.05;5.47;;;;;;;14.25;100.00;101736.94;4865088;29;20037;-77
2022/05/14 07:10:50;;;;;;;31.30;6.07;;;;;;;14.39;100.00;101741.72;4864326;29;20044;-81
2022/05/14 07:13:16;;;;;;;24.15;5.70;;;;;;;14.52;100.00;101747.50;4855943;29;20105;-78
2022/05/14 07:15:42;;;;;;;23.20;5.75;;;;;;;14.60;100.00;101741.50;4859772;29;20045;-78
2022/05/14 07:18:07;;;;;;;25.15;5.65;;;;;;;14.76;100.00;101741.66;4844446;29;20082;-78
2022/05/14 07:20:33;;;;;;;20.80;5.57;;;;;;;14.91;100.00;101743.81;4856878;29;20173;-76
2022/05/14 07:22:59;;;;;;;25.63;5.40;;;;;;;15.04;100.00;101752.19;4856775;29;20128;-79
2022/05/14 07:25:26;;;;;;;25.17;5.22;;;;;;;15.12;97.84;101759.34;4857077;29;20490;-78
2022/05/14 07:27:52;;;;;;;29.23;5.80;;;;;;;15.06;97.46;101747.56;4876319;29;20041;-80
2022/05/14 07:30:18;;;;;;;25.73;5.50;;;;;;;15.13;97.48;101759.19;4861025;29;20049;-78
2022/05/14 07:32:44;;;;;;;19.65;5.18;;;;;;;15.19;95.22;101749.84;4872102;29;20041;-79
2022/05/14 07:35:10;;;;;;;23.15;5.40;;;;;;;15.34;96.53;101755.41;4872026;29;20049;-78
2022/05/14 07:37:43;;;;;;;26.58;5.47;;;;;;;15.46;95.36;101758.63;4870562;29;20041;-78
2022/05/14 07:40:15;;;;;;;22.20;5.03;;;;;;;15.67;96.89;101751.19;4858012;29;20041;-77
2022/05/14 07:42:46;;;;;;;25.70;5.20;;;;;;;15.54;95.26;101764.00;4877020;29;20037;-78
2022/05/14 07:45:17;;;;;;;19.60;4.80;;;;;;;15.57;95.45;101753.09;4856963;29;20057;-79
2022/05/14 07:47:43;;;;;;;23.48;5.13;;;;;;;15.53;94.95;101760.50;4858081;29;20033;-80
2022/05/14 07:50:09;;;;;;;25.60;5.03;;;;;;;15.57;94.50;101759.19;4856987;29;20053;-80
2022/05/14 07:52:36;;;;;;;20.88;4.95;;;;;;;15.52;94.17;101744.78;4872012;29;20069;-76
2022/05/14 07:55:03;;;;;;;20.58;4.85;;;;;;;15.77;93.81;101756.41;4860810;29;20033;-77
2022/05/14 07:57:29;;;;;;;21.98;4.90;;;;;;;15.84;93.15;101746.88;4844959;29;20041;-78
2022/05/14 07:59:54;;;;;;;20.63;4.47;;;;;;;15.95;95.71;101741.31;4858069;29;20544;-79
2022/05/14 08:02:31;;;;;;;20.08;5.05;;;;;;;16.00;92.34;101755.88;4858928;29;20049;-79
2022/05/14 08:05:04;;;;;;;19.58;4.03;;;;;;;16.06;92.11;101758.69;4855792;29;20041;-77
2022/05/14 08:07:31;;;;;;;23.42;4.18;;;;;;;16.33;91.30;101775.38;4862168;29;20115;-78
2022/05/14 08:09:58;;;;;;;19.27;4.85;;;;;;;16.42;90.42;101763.81;4859797;29;20033;-77
2022/05/14 08:12:25;;;;;;;26.58;5.10;;;;;;;16.41;87.65;101756.06;4860155;29;20042;-78
2022/05/14 08:14:50;;;;;;;16.55;3.90;;;;;;;16.51;87.15;101762.84;4845043;29;20045;-78
2022/05/14 08:17:17;;;;;;;18.67;4.20;;;;;;;16.50;84.48;101763.00;4861104;29;20112;-77
2022/05/14 08:19:42;;;;;;;19.92;4.57;;;;;;;16.73;89.29;101768.56;4871135;29;20321;-78
2022/05/14 08:24:54;;;;;;;20.27;4.07;;;;;;;17.36;80.07;101777.75;4865884;29;20025;-77
2022/05/14 08:27:20;;;;;;;17.80;4.30;;;;;;;17.37;81.35;101776.78;4864278;29;20049;-79
2022/05/14 08:29:47;;;;;;;23.02;4.47;;;;;;;16.95;85.28;101769.78;4881219;29;20125;-78
2022/05/14 08:32:14;;;;;;;13.73;3.55;;;;;;;16.64;86.57;101783.59;4869852;29;20041;-77
2022/05/14 08:34:40;;;;;;;16.08;3.97;;;;;;;16.52;84.23;101776.94;4856233;29;20037;-78
2022/05/14 08:37:07;;;;;;;18.02;3.97;;;;;;;16.32;85.47;101782.47;4858651;29;20151;-79
2022/05/14 08:39:33;;;;;;;20.65;4.15;;;;;;;16.11;83.78;101774.13;4860987;29;20757;-79
2022/05/14 08:42:00;;;;;;;15.68;3.70;;;;;;;16.05;88.14;101778.22;4855642;29;20060;-77
2022/05/14 08:44:31;;;;;;;15.05;3.50;;;;;;;16.02;85.95;101775.88;4867954;29;20044;-76
2022/05/14 08:47:03;;;;;;;12.50;3.63;;;;;;;15.82;85.95;101771.78;4854732;29;20033;-78
2022/05/14 08:49:32;;;;;;;17.13;3.65;;;;;;;15.98;87.10;101784.31;4856487;29;20486;-78
2022/05/14 08:52:01;;;;;;;19.40;3.63;;;;;;;16.28;82.36;101791.75;4851289;29;20065;-76
2022/05/14 08:54:27;;;;;;;13.02;3.55;;;;;;;16.57;87.32;101782.56;4854129;29;20045;-81
2022/05/14 08:57:02;;;;;;;15.27;3.58;;;;;;;16.65;81.55;101792.38;4839218;29;20049;-79
2022/05/14 08:59:59;;;;;;;23.08;4.25;;;;;;;16.46;81.19;101793.47;4879928;29;20121;-79
2022/05/14 09:02:30;;;;;;;20.90;3.80;;;;;;;16.80;81.19;101792.56;4853711;29;20053;-78
2022/05/14 09:05:24;;;;;;;17.23;3.33;;;;;;;17.37;75.45;101797.19;4854777;29;20405;-77
2022/05/14 09:07:50;;;;;;;9.48;2.67;;;;;;;18.02;73.18;101796.28;4855225;29;20094;-80
2022/05/14 09:10:22;;;;;;;11.85;2.78;;;;;;;17.64;70.11;101785.38;4877482;29;20052;-79
2022/05/14 09:12:52;;;;;;;16.10;3.33;;;;;;;17.11;75.87;101788.34;4855801;29;20069;-78
2022/05/14 09:15:18;;;;;;;15.52;3.47;;;;;;;16.95;75.32;101790.97;4864645;29;20300;-80
2022/05/14 09:17:44;;;;;;;13.10;2.90;;;;;;;17.31;74.64;101793.38;4856748;29;20120;-80
2022/05/14 09:20:21;;;;;;;10.40;2.90;;;;;;;17.70;72.54;101796.13;4859977;29;20077;-78
2022/05/14 09:22:53;;;;;;;13.25;3.03;;;;;;;17.34;79.64;101800.16;4858556;29;20098;-78
2022/05/14 09:25:18;;;;;;;14.43;2.95;;;;;;;17.03;77.52;101792.84;4863988;29;20034;-79
2022/05/14 09:28:01;;;;;;;13.85;3.08;;;;;;;16.82;77.35;101793.25;4858998;29;20420;-78
2022/05/14 09:30:35;;;;;;;15.07;2.85;;;;;;;16.60;78.16;101798.16;4857650;29;20508;-79
2022/05/14 09:33:02;;;;;;;11.10;3.00;;;;;;;16.63;77.09;101795.19;4855944;29;20867;-79
2022/05/14 09:35:32;;;;;;;11.45;3.28;;;;;;;16.54;74.75;101810.22;4840330;29;20037;-79
2022/05/14 09:38:18;;;;;;;12.98;3.00;;;;;;;17.01;74.99;101810.69;4846342;29;20922;-77
2022/05/14 09:40:44;;;;;;;19.20;3.45;;;;;;;17.05;75.35;101814.72;4857844;29;20041;-78
2022/05/14 09:43:15;;;;;;;15.48;3.78;;;;;;;17.03;76.81;101808.75;4857463;29;20056;-78
2022/05/14 09:46:04;;;;;;;16.17;3.10;;;;;;;17.04;77.10;101805.91;4859053;29;20033;-78
2022/05/14 09:48:51;;;;;;;9.18;2.70;;;;;;;17.17;76.43;101817.88;4870720;29;20398;-80
2022/05/14 09:51:29;;;;;;;16.48;3.50;;;;;;;17.15;79.52;101825.97;4858831;29;20512;-77
2022/05/14 09:53:55;;;;;;;15.70;3.17;;;;;;;17.21;76.61;101824.50;4842729;29;20041;-79
2022/05/14 09:56:44;;;;;;;17.38;2.80;;;;;;;16.97;72.05;101826.13;4858489;29;20477;-79
2022/05/14 09:59:16;;;;;;;10.77;2.70;;;;;;;16.86;77.84;101823.78;4847231;29;20045;-78
2022/05/14 10:01:56;;;;;;;15.63;3.20;;;;;;;16.71;79.77;101821.69;4867065;29;20061;-78
2022/05/14 10:04:47;;;;;;;12.77;3.20;;;;;;;16.80;78.82;101829.66;4854466;29;20095;-78
2022/05/14 10:08:04;;;;;;;13.27;3.08;;;;;;;16.82;80.53;101831.22;4855194;29;20037;-78
2022/05/14 10:10:38;;;;;;;12.18;2.72;;;;;;;16.41;78.54;101830.19;4834713;29;20425;-79
2022/05/14 10:13:16;;;;;;;12.63;2.88;;;;;;;16.17;79.92;101844.13;4868934;29;20037;-80
2022/05/14 10:16:07;;;;;;;13.77;2.97;;;;;;;16.23;83.72;101825.78;4873111;29;20401;-77
2022/05/14 10:18:55;;;;;;;15.50;3.13;;;;;;;16.60;79.32;101840.53;4845281;29;20064;-77
2022/05/14 10:21:38;;;;;;;15.05;3.00;;;;;;;17.19;75.28;101837.91;4862176;29;20060;-77
2022/05/14 10:27:44;;;;;;;16.17;3.10;;;;;;;16.96;80.20;101828.94;4866054;29;20045;-79
2022/05/14 10:30:17;;;;;;;13.00;3.03;;;;;;;16.73;82.10;101848.03;4853717;29;20123;-78
2022/05/14 10:32:52;;;;;;;12.52;2.97;;;;;;;16.63;80.98;101850.81;4852978;29;20034;-77
2022/05/14 10:35:24;;;;;;;8.00;2.45;;;;;;;16.52;74.03;101854.56;4866163;29;20124;-77
2022/05/14 10:38:14;;;;;;;12.02;2.85;;;;;;;16.83;83.52;101848.75;4858367;29;20132;-78
2022/05/14 10:40:46;;;;;;;12.52;2.97;;;;;;;16.93;76.03;101848.63;4854896;29;20041;-78
2022/05/14 10:43:29;;;;;;;12.27;2.60;;;;;;;16.85;75.33;101854.72;4877497;29;20040;-78
2022/05/14 10:45:57;;;;;;;14.98;3.30;;;;;;;16.81;77.88;101849.88;4862303;29;20037;-79
2022/05/14 10:48:32;;;;;;;12.60;3.10;;;;;;;16.65;79.32;101858.59;4862807;29;20428;-79
2022/05/14 10:51:00;;;;;;;14.80;2.70;;;;;;;16.59;77.23;101862.69;4861699;29;20109;-78
2022/05/14 10:53:26;;;;;;;16.50;3.80;;;;;;;16.67;81.39;101860.09;4860293;29;20064;-79
2022/05/14 10:56:07;;;;;;;15.52;2.72;;;;;;;16.99;80.85;101865.69;4871356;29;20052;-77
2022/05/14 10:58:51;;;;;;;13.38;2.90;;;;;;;17.05;79.15;101860.59;4866041;29;20128;-79
2022/05/14 11:01:35;;;;;;;13.93;2.70;;;;;;;17.06;74.19;101856.94;4841070;29;20072;-78
2022/05/14 11:04:23;;;;;;;11.25;2.50;;;;;;;17.22;79.57;101857.97;4852370;29;20033;-78
2022/05/14 11:07:06;;;;;;;16.13;2.80;;;;;;;17.37;75.11;101853.69;4875254;29;20053;-80
2022/05/14 11:09:39;;;;;;;11.73;2.53;;;;;;;17.50;71.57;101869.13;4856348;29;20042;-78
2022/05/14 11:12:09;;;;;;;10.50;2.65;;;;;;;17.38;69.79;101875.72;4845046;29;20577;-78
2022/05/14 11:14:44;;;;;;;10.35;2.72;;;;;;;17.27;75.23;101871.56;4855488;29;20614;-79
2022/05/14 11:17:29;;;;;;;11.60;2.40;;;;;;;16.99;76.73;101874.50;4858345;29;20508;-79
2022/05/14 11:20:04;;;;;;;10.52;2.17;;;;;;;16.95;77.84;101880.25;4867387;29;20045;-80
2022/05/14 11:22:33;;;;;;;10.18;2.33;;;;;;;16.98;79.02;101885.25;4871171;29;20045;-79
2022/05/14 11:25:31;;;;;;;13.05;2.70;;;;;;;17.06;74.32;101864.88;4859174;29;20045;-78
2022/05/14 11:27:57;;;;;;;11.57;2.65;;;;;;;18.23;69.87;101875.38;4825935;29;20500;-77
2022/05/14 11:30:39;;;;;;;9.50;2.42;;;;;;;18.70;64.53;101887.03;4861627;29;20074;-78
2022/05/14 11:33:18;;;;;;;12.20;2.40;;;;;;;18.54;67.23;101893.25;4858063;29;20583;-79
2022/05/14 11:35:46;;;;;;;6.43;2.13;;;;;;;18.26;66.25;101886.50;4855473;29;20113;-79
2022/05/14 11:38:24;;;;;;;12.43;2.92;;;;;;;18.56;71.80;101889.41;4830002;29;20078;-78
2022/05/14 11:41:04;;;;;;;17.05;3.15;;;;;;;18.33;66.49;101883.16;4872536;29;20056;-81
2022/05/14 11:43:32;;;;;;;11.38;2.92;;;;;;;17.67;68.00;101877.91;4872600;29;20053;-78